Hailesboro, NY (13645)

9:48 PM EST on December 07, 2016 (GMT -0500)
Village of Gouverneur (Barnes St.) | | Change Station

Elev 433 ft 44.34 °N, 75.47 °W | Updated 20 seconds ago

Light Snow
Light Snow Mist
33.2 °F
Feels Like 33 °F
N
0.0
Wind Variable Wind from SW

Today
High -- | Low -- °F
--% Chance of Precip.
Yesterday
High -- | Low -- °F
Precip. -- in
Pressure 29.93 in
Visibility 4.0 miles
Clouds Few 200 ft
Overcast 1800 ft
Windchill 33 °F
Dew Point 32 °F
Humidity 98%
Rainfall 0.00 in
Snow Depth Not available.
7:24 AM 4:22 PM
First Quarter, 58% visible
SPECI KGTB 080238Z AUTO 20006KT 4SM -SN BR FEW002 OVC018 01/00 A2993 RMK AO2 RAB07E23SNB23
Pressure 29.93 in
Visibility 4.0 miles
Clouds Few 200 ft
Overcast 1800 ft
Windchill 33 °F
Dew Point 32 °F
Humidity 98%
Rainfall 0.00 in
Snow Depth Not available.
7:24 AM 4:22 PM
First Quarter, 58% visible
SPECI KGTB 080238Z AUTO 20006KT 4SM -SN BR FEW002 OVC018 01/00 A2993 RMK AO2 RAB07E23SNB23

10-Day Weather Forecast

Almanac

Astronomy

Dec. 07, 2016 Rise Set
Actual Time
Civil Twilight
Nautical Twilight
Astronomical Twilight
Moon
Length of Visible Light
Length of Day
Tomorrow will be .
, % of the Moon is Illuminated

Today's Extremes

State Highs State Lows

Community

WunderPhotos

Upload Photos

1,956,259 photos uploaded!

WunderBlog® & News

Nearby

Air Quality

  Air Quality AQ Index Pollutant
Not available.

Snow Depth

Station Depth Elevation

Earthquake Activity

City Distance Mag. Time & Date
Minimum magnitude displayed is 2.5.

Coastal Water Temperatures

Place Temperature

Stations

Nearby Weather Stations

Station Location Temp. Windchill Dew Point Humidity Wind Precip. Elev Updated Type
                   

Watches & Warnings

There are currently no watches in effect.